sensor_id;sensor_type;location;lat;lon;timestamp;temperature;humidity
56123;DHT22;42426;46.104;19.656;2024-03-07T00:00:07;256.50;2252.80
56123;DHT22;42426;46.104;19.656;2024-03-07T00:02:44;256.50;2252.80
56123;DHT22;42426;46.104;19.656;2024-03-07T00:05:13;256.50;2252.80
56123;DHT22;42426;46.104;19.656;2024-03-07T00:07:42;256.50;2252.80
56123;DHT22;42426;46.104;19.656;2024-03-07T00:10:08;256.60;2252.80
56123;DHT22;42426;46.104;19.656;2024-03-07T00:12:35;256.50;2252.80
56123;DHT22;42426;46.104;19.656;2024-03-07T00:15:06;256.50;2252.80
56123;DHT22;42426;46.104;19.656;2024-03-07T00:17:32;256.50;2252.80
56123;DHT22;42426;46.104;19.656;2024-03-07T00:19:58;256.40;2252.80
56123;DHT22;42426;46.104;19.656;2024-03-07T00:22:24;256.40;2252.80
56123;DHT22;42426;46.104;19.656;2024-03-07T00:24:53;256.30;2252.80
56123;DHT22;42426;46.104;19.656;2024-03-07T00:27:19;256.30;2252.80
56123;DHT22;42426;46.104;19.656;2024-03-07T00:29:47;256.30;2252.80
56123;DHT22;42426;46.104;19.656;2024-03-07T00:32:19;256.30;2252.80
56123;DHT22;42426;46.104;19.656;2024-03-07T00:34:45;256.30;2252.80
56123;DHT22;42426;46.104;19.656;2024-03-07T00:37:12;256.30;2252.80
56123;DHT22;42426;46.104;19.656;2024-03-07T00:39:38;256.30;2252.80
56123;DHT22;42426;46.104;19.656;2024-03-07T00:42:04;256.20;2252.80
56123;DHT22;42426;46.104;19.656;2024-03-07T00:44:30;256.20;2252.80
56123;DHT22;42426;46.104;19.656;2024-03-07T00:46:56;256.00;2252.80
56123;DHT22;42426;46.104;19.656;2024-03-07T00:49:23;256.00;2252.80
56123;DHT22;42426;46.104;19.656;2024-03-07T00:51:50;256.00;2252.80
56123;DHT22;42426;46.104;19.656;2024-03-07T00:54:15;256.10;2252.80
56123;DHT22;42426;46.104;19.656;2024-03-07T00:56:42;256.10;2252.80
56123;DHT22;42426;46.104;19.656;2024-03-07T00:59:09;256.00;2252.80
56123;DHT22;42426;46.104;19.656;2024-03-07T01:01:34;256.00;2252.80
56123;DHT22;42426;46.104;19.656;2024-03-07T01:04:02;231.30;2252.80
56123;DHT22;42426;46.104;19.656;2024-03-07T01:06:30;231.30;2252.80
56123;DHT22;42426;46.104;19.656;2024-03-07T01:08:55;231.30;2252.80
56123;DHT22;42426;46.104;19.656;2024-03-07T01:11:21;231.30;2252.80
56123;DHT22;42426;46.104;19.656;2024-03-07T01:13:47;231.20;2252.80
56123;DHT22;42426;46.104;19.656;2024-03-07T01:16:13;231.20;2252.80
56123;DHT22;42426;46.104;19.656;2024-03-07T01:18:39;231.20;2252.80
56123;DHT22;42426;46.104;19.656;2024-03-07T01:21:05;231.20;2252.80
56123;DHT22;42426;46.104;19.656;2024-03-07T01:23:31;231.20;2252.80
56123;DHT22;42426;46.104;19.656;2024-03-07T01:25:58;231.10;2252.80
56123;DHT22;42426;46.104;19.656;2024-03-07T01:28:25;231.10;2252.80
56123;DHT22;42426;46.104;19.656;2024-03-07T01:30:52;231.10;2252.80
56123;DHT22;42426;46.104;19.656;2024-03-07T01:33:20;231.20;2252.80
56123;DHT22;42426;46.104;19.656;2024-03-07T01:35:46;231.00;2252.80
56123;DHT22;42426;46.104;19.656;2024-03-07T01:38:13;231.10;2252.80
56123;DHT22;42426;46.104;19.656;2024-03-07T01:40:43;231.10;2252.80
56123;DHT22;42426;46.104;19.656;2024-03-07T01:43:10;231.10;2252.80
56123;DHT22;42426;46.104;19.656;2024-03-07T01:45:36;231.10;2252.80
56123;DHT22;42426;46.104;19.656;2024-03-07T01:48:04;231.10;2252.80
56123;DHT22;42426;46.104;19.656;2024-03-07T01:50:32;231.10;2252.80
56123;DHT22;42426;46.104;19.656;2024-03-07T01:52:59;231.10;2252.80
56123;DHT22;42426;46.104;19.656;2024-03-07T01:55:27;231.10;2252.80
56123;DHT22;42426;46.104;19.656;2024-03-07T01:57:55;231.20;2252.80
56123;DHT22;42426;46.104;19.656;2024-03-07T02:00:22;231.10;2252.80
56123;DHT22;42426;46.104;19.656;2024-03-07T02:02:48;231.10;2252.80
56123;DHT22;42426;46.104;19.656;2024-03-07T02:05:16;231.00;2252.80
56123;DHT22;42426;46.104;19.656;2024-03-07T02:07:43;231.00;2252.80
56123;DHT22;42426;46.104;19.656;2024-03-07T02:10:09;231.10;2252.80
56123;DHT22;42426;46.104;19.656;2024-03-07T02:12:36;231.00;2252.80
56123;DHT22;42426;46.104;19.656;2024-03-07T02:15:02;231.00;2252.80
56123;DHT22;42426;46.104;19.656;2024-03-07T02:17:28;231.00;2252.80
56123;DHT22;42426;46.104;19.656;2024-03-07T02:19:55;231.00;2252.80
56123;DHT22;42426;46.104;19.656;2024-03-07T02:22:21;231.00;2252.80
56123;DHT22;42426;46.104;19.656;2024-03-07T02:24:46;231.00;2252.80
56123;DHT22;42426;46.104;19.656;2024-03-07T02:27:13;231.00;2252.80
56123;DHT22;42426;46.104;19.656;2024-03-07T02:29:40;230.90;2252.80
56123;DHT22;42426;46.104;19.656;2024-03-07T02:32:06;231.00;2252.80
56123;DHT22;42426;46.104;19.656;2024-03-07T02:34:32;231.00;2252.80
56123;DHT22;42426;46.104;19.656;2024-03-07T02:36:58;230.90;2252.80
56123;DHT22;42426;46.104;19.656;2024-03-07T02:39:24;230.90;2252.80
56123;DHT22;42426;46.104;19.656;2024-03-07T02:41:52;230.90;2252.80
56123;DHT22;42426;46.104;19.656;2024-03-07T02:44:18;230.80;2252.80
56123;DHT22;42426;46.104;19.656;2024-03-07T02:46:45;230.90;2252.80
56123;DHT22;42426;46.104;19.656;2024-03-07T02:49:13;230.90;2252.80
56123;DHT22;42426;46.104;19.656;2024-03-07T02:51:40;230.90;2252.80
56123;DHT22;42426;46.104;19.656;2024-03-07T02:54:07;230.90;2252.80
56123;DHT22;42426;46.104;19.656;2024-03-07T02:56:34;230.90;2252.80
56123;DHT22;42426;46.104;19.656;2024-03-07T02:59:00;230.80;2252.80
56123;DHT22;42426;46.104;19.656;2024-03-07T03:01:26;230.80;2252.80
56123;DHT22;42426;46.104;19.656;2024-03-07T03:03:52;230.80;2252.80
56123;DHT22;42426;46.104;19.656;2024-03-07T03:06:18;230.80;2252.80
56123;DHT22;42426;46.104;19.656;2024-03-07T03:08:49;230.80;2252.80
56123;DHT22;42426;46.104;19.656;2024-03-07T03:11:15;230.80;2252.80
56123;DHT22;42426;46.104;19.656;2024-03-07T03:13:41;230.80;2252.80
56123;DHT22;42426;46.104;19.656;2024-03-07T03:16:07;230.80;2252.80
56123;DHT22;42426;46.104;19.656;2024-03-07T03:18:34;230.70;2252.80
56123;DHT22;42426;46.104;19.656;2024-03-07T03:21:00;230.70;2252.80
56123;DHT22;42426;46.104;19.656;2024-03-07T03:23:27;230.70;2252.80
56123;DHT22;42426;46.104;19.656;2024-03-07T03:25:53;230.70;2252.80
56123;DHT22;42426;46.104;19.656;2024-03-07T03:28:19;230.70;2252.80
56123;DHT22;42426;46.104;19.656;2024-03-07T03:30:48;230.70;2252.80
56123;DHT22;42426;46.104;19.656;2024-03-07T03:33:14;230.70;2252.80
56123;DHT22;42426;46.104;19.656;2024-03-07T03:35:40;230.60;2252.80
56123;DHT22;42426;46.104;19.656;2024-03-07T03:38:07;230.60;2252.80
56123;DHT22;42426;46.104;19.656;2024-03-07T03:40:33;230.60;2252.80
56123;DHT22;42426;46.104;19.656;2024-03-07T03:42:59;230.60;2252.80
56123;DHT22;42426;46.104;19.656;2024-03-07T03:45:26;230.60;2252.80
56123;DHT22;42426;46.104;19.656;2024-03-07T03:47:52;230.50;2252.80
56123;DHT22;42426;46.104;19.656;2024-03-07T03:50:18;230.50;2252.80
56123;DHT22;42426;46.104;19.656;2024-03-07T03:52:44;230.50;2252.80
56123;DHT22;42426;46.104;19.656;2024-03-07T03:55:11;230.50;2252.80
56123;DHT22;42426;46.104;19.656;2024-03-07T03:57:41;230.50;2252.80
56123;DHT22;42426;46.104;19.656;2024-03-07T04:00:08;230.50;2252.80
56123;DHT22;42426;46.104;19.656;2024-03-07T04:02:46;230.50;2252.80
56123;DHT22;42426;46.104;19.656;2024-03-07T04:05:16;230.50;2252.80
56123;DHT22;42426;46.104;19.656;2024-03-07T04:07:43;230.40;2252.80
56123;DHT22;42426;46.104;19.656;2024-03-07T04:10:10;230.40;2252.80
56123;DHT22;42426;46.104;19.656;2024-03-07T04:12:37;230.40;2252.80
56123;DHT22;42426;46.104;19.656;2024-03-07T04:15:08;230.40;2252.80
56123;DHT22;42426;46.104;19.656;2024-03-07T04:17:34;230.40;2252.80
56123;DHT22;42426;46.104;19.656;2024-03-07T04:20:01;230.40;2252.80
56123;DHT22;42426;46.104;19.656;2024-03-07T04:22:28;230.40;2252.80
56123;DHT22;42426;46.104;19.656;2024-03-07T04:24:54;205.70;2252.80
56123;DHT22;42426;46.104;19.656;2024-03-07T04:27:21;205.70;2252.80
56123;DHT22;42426;46.104;19.656;2024-03-07T04:29:48;205.70;2252.80
56123;DHT22;42426;46.104;19.656;2024-03-07T04:32:15;205.70;2252.80
56123;DHT22;42426;46.104;19.656;2024-03-07T04:34:40;205.70;2252.80
56123;DHT22;42426;46.104;19.656;2024-03-07T04:37:07;230.40;2252.80
56123;DHT22;42426;46.104;19.656;2024-03-07T04:39:33;230.40;2252.80
56123;DHT22;42426;46.104;19.656;2024-03-07T04:42:00;230.40;2252.80
56123;DHT22;42426;46.104;19.656;2024-03-07T04:44:27;205.70;2252.80
56123;DHT22;42426;46.104;19.656;2024-03-07T04:46:53;205.70;2252.80
56123;DHT22;42426;46.104;19.656;2024-03-07T04:49:24;205.70;2252.80
56123;DHT22;42426;46.104;19.656;2024-03-07T04:51:54;205.70;2252.80
56123;DHT22;42426;46.104;19.656;2024-03-07T04:54:20;205.70;2252.80
56123;DHT22;42426;46.104;19.656;2024-03-07T04:56:47;205.70;2252.80
56123;DHT22;42426;46.104;19.656;2024-03-07T04:59:14;205.70;2252.80
56123;DHT22;42426;46.104;19.656;2024-03-07T05:01:40;205.60;2252.80
56123;DHT22;42426;46.104;19.656;2024-03-07T05:04:07;205.60;2252.80
56123;DHT22;42426;46.104;19.656;2024-03-07T05:06:33;205.60;2252.80
56123;DHT22;42426;46.104;19.656;2024-03-07T05:09:03;205.50;2252.80
56123;DHT22;42426;46.104;19.656;2024-03-07T05:11:32;205.50;2252.80
56123;DHT22;42426;46.104;19.656;2024-03-07T05:13:58;205.40;2252.80
56123;DHT22;42426;46.104;19.656;2024-03-07T05:16:28;205.50;2252.80
56123;DHT22;42426;46.104;19.656;2024-03-07T05:18:55;205.40;2252.80
56123;DHT22;42426;46.104;19.656;2024-03-07T05:21:26;205.40;2252.80
56123;DHT22;42426;46.104;19.656;2024-03-07T05:24:09;205.40;2252.80
56123;DHT22;42426;46.104;19.656;2024-03-07T05:26:35;205.40;2252.80
56123;DHT22;42426;46.104;19.656;2024-03-07T05:29:07;205.40;2252.80
56123;DHT22;42426;46.104;19.656;2024-03-07T05:31:34;205.40;2252.80
56123;DHT22;42426;46.104;19.656;2024-03-07T05:34:02;205.40;2252.80
56123;DHT22;42426;46.104;19.656;2024-03-07T05:36:34;205.40;2252.80
56123;DHT22;42426;46.104;19.656;2024-03-07T05:39:00;205.40;2252.80
56123;DHT22;42426;46.104;19.656;2024-03-07T05:41:30;205.40;2252.80
56123;DHT22;42426;46.104;19.656;2024-03-07T05:43:56;205.40;2252.80
